Burns, Mississippi
Current Conditions -  °F | °C
As of 1:54 AM on Monday 26 Jan 2015 (Local Time) from KJAN Reporting Station
Clear Clear  
Wind Chill: 42°   Ceiling: Unl
Heat Index: 46°   Visibility: 10mi
Dew Point: 33°   Wind: 8mph
Humidity: 61%   Direction: 320°NW
Pressure: 30"   Gusts: NA
Location:  32.0729°N, 89.5094°W
Report Text: KJAN 260754Z AUTO 32007KT 10SM CLR 08/01 A3000 RMK AO2 SLP156 T00780006
Loading
Personal Weather Stations






























Interactive Weather Map New forecast layout! Learn more

10-Day Weather Forecast

Advertisements
Track Severe Weather on mobile